地図

経路データ

SID SEASON NUMBER BASIN SUBBASIN NAME ISO_TIME NATURE LAT LON WMO_WIND WMO_PRES WMO_AGENCY TRACK_TYPE DIST2LAND LANDFALL IFLAG USA_AGENCY USA_ATCF_ID USA_LAT USA_LON USA_RECORD USA_STATUS USA_WIND USA_PRES USA_SSHS USA_R34_NE USA_R34_SE USA_R34_SW USA_R34_NW USA_R50_NE USA_R50_SE USA_R50_SW USA_R50_NW USA_R64_NE USA_R64_SE USA_R64_SW USA_R64_NW USA_POCI USA_ROCI USA_RMW USA_EYE TOKYO_LAT TOKYO_LON TOKYO_GRADE TOKYO_WIND TOKYO_PRES TOKYO_R50_DIR TOKYO_R50_LONG TOKYO_R50_SHORT TOKYO_R30_DIR TOKYO_R30_LONG TOKYO_R30_SHORT TOKYO_LAND CMA_LAT CMA_LON CMA_CAT CMA_WIND CMA_PRES HKO_LAT HKO_LON HKO_CAT HKO_WIND HKO_PRES NEWDELHI_LAT NEWDELHI_LON NEWDELHI_GRADE NEWDELHI_WIND NEWDELHI_PRES NEWDELHI_CI NEWDELHI_DP NEWDELHI_POCI REUNION_LAT REUNION_LON REUNION_TYPE REUNION_WIND REUNION_PRES REUNION_TNUM REUNION_CI REUNION_RMW REUNION_R34_NE REUNION_R34_SE REUNION_R34_SW REUNION_R34_NW REUNION_R50_NE REUNION_R50_SE REUNION_R50_SW REUNION_R50_NW REUNION_R64_NE REUNION_R64_SE REUNION_R64_SW REUNION_R64_NW BOM_LAT BOM_LON BOM_TYPE BOM_WIND BOM_PRES BOM_TNUM BOM_CI BOM_RMW BOM_R34_NE BOM_R34_SE BOM_R34_SW BOM_R34_NW BOM_R50_NE BOM_R50_SE BOM_R50_SW BOM_R50_NW BOM_R64_NE BOM_R64_SE BOM_R64_SW BOM_R64_NW BOM_ROCI BOM_POCI BOM_EYE BOM_POS_METHOD BOM_PRES_METHOD NADI_LAT NADI_LON NADI_CAT NADI_WIND NADI_PRES WELLINGTON_LAT WELLINGTON_LON WELLINGTON_WIND WELLINGTON_PRES DS824_LAT DS824_LON DS824_STAGE DS824_WIND DS824_PRES TD9636_LAT TD9636_LON TD9636_STAGE TD9636_WIND TD9636_PRES TD9635_LAT TD9635_LON TD9635_WIND TD9635_PRES TD9635_ROCI NEUMANN_LAT NEUMANN_LON NEUMANN_CLASS NEUMANN_WIND NEUMANN_PRES MLC_LAT MLC_LON MLC_CLASS MLC_WIND MLC_PRES USA_GUST BOM_GUST BOM_GUST_PER REUNION_GUST REUNION_GUST_PER USA_SEAHGT USA_SEARAD_NE USA_SEARAD_SE USA_SEARAD_SW USA_SEARAD_NW STORM_SPEED STORM_DIR
1950052S17194 1950 12 SP MM NOT_NAMED 1950-02-21 00:00:00 TS -17.4000 194.200 main 795 767 O________OO___ jtwc_sh SH131950 -17.4000 -165.800 -1 -17.4000 194.200 TC -17.4000 -165.800 2 6 280
1950052S17194 1950 12 SP MM NOT_NAMED 1950-02-21 03:00:00 TS -17.3498 193.895 main 761 734 P________PP___ SH131950 -17.3401 -166.108 -1 -17.3401 -166.108 TC -17.3693 -166.099 2 6 279
1950052S17194 1950 12 SP MM NOT_NAMED 1950-02-21 06:00:00 TS -17.3135 193.604 main 734 716 O________OP___ jtwc_sh SH131950 -17.3000 -166.400 -1 -17.3000 193.600 TC -17.3406 -166.388 2 5 275
1950052S17194 1950 12 SP MM NOT_NAMED 1950-02-21 09:00:00 TS -17.3005 193.337 main 707 689 P________PP___ SH131950 -17.2925 -166.665 -1 -17.2925 -166.665 TC -17.3167 -166.658 2 5 272
1950052S17194 1950 12 SP MM NOT_NAMED 1950-02-21 12:00:00 TS -17.3000 193.100 main 689 672 O________OO___ jtwc_sh SH131950 -17.3000 -166.900 -1 -17.3000 193.100 TC -17.3000 -166.900 2 4 270
1950052S17194 1950 12 SP MM NOT_NAMED 1950-02-21 15:00:00 TS -17.2974 192.896 main 672 655 P________PP___ SH131950 -17.2999 -167.100 -1 -17.2999 -167.100 TC -17.2924 -167.111 2 4 270
1950052S17194 1950 12 SP MM NOT_NAMED 1950-02-21 18:00:00 TS -17.2973 192.696 main 655 638 O________OP___ jtwc_sh SH131950 -17.3000 -167.300 -1 -17.3000 192.700 TC -17.2918 -167.312 2 4 270
1950052S17194 1950 12 SP MM NOT_NAMED 1950-02-21 21:00:00 TS -17.2984 192.476 main 638 612 P________PP___ SH131950 -17.2999 -167.520 -1 -17.2999 -167.520 TC -17.2954 -167.533 2 5 270
1950052S17194 1950 12 SP MM NOT_NAMED 1950-02-22 00:00:00 TS -17.3000 192.200 main 612 588 O________OO___ jtwc_sh SH131950 -17.3000 -167.800 -1 -17.3000 192.200 TC -17.3000 -167.800 2 6 270
1950052S17194 1950 12 SP MM NOT_NAMED 1950-02-22 03:00:00 TS -17.3001 191.830 main 580 549 P________PP___ SH131950 -17.3000 -168.178 -1 -17.3000 -168.178 TC -17.3002 -168.154 2 8 270
1950052S17194 1950 12 SP MM NOT_NAMED 1950-02-22 06:00:00 TS -17.3001 191.415 main 549 520 O________OP___ jtwc_sh SH131950 -17.3000 -168.600 -1 -17.3000 191.400 TC -17.3003 -168.555 2 8 270
1950052S17194 1950 12 SP MM NOT_NAMED 1950-02-22 09:00:00 TS -17.3000 191.002 main 520 493 P________PP___ SH131950 -17.3000 -169.008 -1 -17.3000 -169.008 TC -17.3002 -168.979 2 8 270
1950052S17194 1950 12 SP MM NOT_NAMED 1950-02-22 12:00:00 TS -17.3000 190.600 main 493 474 O________OO___ jtwc_sh SH131950 -17.3000 -169.400 -1 -17.3000 190.600 TC -17.3000 -169.400 2 7 270
1950052S17194 1950 12 SP MM NOT_NAMED 1950-02-22 15:00:00 TS -17.2997 190.247 main 468 451 P________PP___ SH131950 -17.2999 -169.750 -1 -17.2999 -169.750 TC -17.2994 -169.758 2 7 270
1950052S17194 1950 12 SP MM NOT_NAMED 1950-02-22 18:00:00 TS -17.2997 189.896 main 451 432 O________OP___ jtwc_sh SH131950 -17.3000 -170.100 -1 -17.3000 189.900 TC -17.2991 -170.113 2 7 270
1950052S17194 1950 12 SP MM NOT_NAMED 1950-02-22 21:00:00 TS -17.2997 189.520 main 432 415 P________PP___ SH131950 -17.2999 -170.478 -1 -17.2999 -170.478 TC -17.2993 -170.486 2 8 270
1950052S17194 1950 12 SP MM NOT_NAMED 1950-02-23 00:00:00 TS -17.3000 189.100 main 415 401 O________OO___ jtwc_sh SH131950 -17.3000 -170.900 -1 -17.3000 189.100 TC -17.3000 -170.900 2 9 270
1950052S17194 1950 12 SP MM NOT_NAMED 1950-02-23 03:00:00 TS -17.3014 188.618 main 401 393 P________PP___ SH131950 -17.2999 -171.378 -1 -17.2999 -171.378 TC -17.3043 -171.390 2 10 270
1950052S17194 1950 12 SP MM NOT_NAMED 1950-02-23 06:00:00 TS -17.3026 188.093 main 393 391 O________OP___ jtwc_sh SH131950 -17.3000 -171.900 -1 -17.3000 188.100 TC -17.3078 -171.920 2 10 270
1950052S17194 1950 12 SP MM NOT_NAMED 1950-02-23 09:00:00 TS -17.3025 187.540 main 391 391 P________PP___ SH131950 -17.3000 -172.458 -1 -17.3000 -172.458 TC -17.3074 -172.465 2 10 270
1950052S17194 1950 12 SP MM NOT_NAMED 1950-02-23 12:00:00 TS -17.3000 187.000 main 394 394 O________OO___ jtwc_sh SH131950 -17.3000 -173.000 -1 -17.3000 187.000 TC -17.3000 -173.000 2 10 270
1950052S17194 1950 12 SP MM NOT_NAMED 1950-02-23 15:00:00 TS -17.3026 186.540 main 403 403 P________PP___ SH131950 -17.3072 -173.457 -1 -17.3072 -173.457 TC -17.2934 -173.465 2 9 270
1950052S17194 1950 12 SP MM NOT_NAMED 1950-02-23 18:00:00 TS -17.2929 186.093 main 415 415 O________OP___ jtwc_sh SH131950 -17.3000 -173.900 -1 -17.3000 186.100 TC -17.2786 -173.920 2 9 273
1950052S17194 1950 12 SP MM NOT_NAMED 1950-02-23 21:00:00 TS -17.2597 185.618 main 436 431 P________PP___ SH131950 -17.2648 -174.377 -1 -17.2648 -174.377 TC -17.2496 -174.390 2 10 276
1950052S17194 1950 12 SP MM NOT_NAMED 1950-02-24 00:00:00 TS -17.2000 185.100 main 453 453 O________OO___ jtwc_sh SH131950 -17.2000 -174.900 -1 -17.2000 185.100 TC -17.2000 -174.900 2 11 278
1950052S17194 1950 12 SP MM NOT_NAMED 1950-02-24 03:00:00 TS -17.1081 184.518 main 482 426 P________PP___ SH131950 -17.1074 -175.478 -1 -17.1074 -175.478 TC -17.1096 -175.491 2 12 280
1950052S17194 1950 12 SP MM NOT_NAMED 1950-02-24 06:00:00 TS -17.0001 183.893 main 426 362 O________OP___ jtwc_sh SH131950 -17.0000 -176.100 -1 -17.0000 183.900 TC -17.0003 -176.121 2 12 280
1950052S17194 1950 12 SP MM NOT_NAMED 1950-02-24 09:00:00 TS -16.8919 183.240 main 351 287 P________PP___ SH131950 -16.8925 -176.758 -1 -16.8925 -176.758 TC -16.8907 -176.766 2 13 279
1950052S17194 1950 12 SP MM NOT_NAMED 1950-02-24 12:00:00 TS -16.8000 182.600 main 287 234 O________OO___ jtwc_sh SH131950 -16.8000 -177.400 -1 -16.8000 182.600 TC -16.8000 -177.400 2 12 278
1950052S17194 1950 12 SP MM NOT_NAMED 1950-02-24 15:00:00 TS -16.7393 182.032 main 223 170 P________PP___ SH131950 -16.7347 -177.957 -1 -16.7347 -177.957 TC -16.7487 -177.989 2 11 275
1950052S17194 1950 12 SP MM NOT_NAMED 1950-02-24 18:00:00 TS -16.7064 181.478 main 170 107 O________OP___ jtwc_sh SH131950 -16.7000 -178.500 -1 -16.7000 181.500 TC -16.7191 -178.565 2 11 272
1950052S17194 1950 12 SP MM NOT_NAMED 1950-02-24 21:00:00 TS -16.6966 180.889 main 107 44 P________PP___ SH131950 -16.6925 -179.100 -1 -16.6925 -179.100 TC -16.7050 -179.133 2 11 270
1950052S17194 1950 12 SP MM NOT_NAMED 1950-02-25 00:00:00 TS -16.7000 180.300 main 44 0 O________OO___ jtwc_sh SH131950 -16.7000 -179.700 -1 -16.7000 180.300 TC -16.7000 -179.700 2 11 270
1950052S17194 1950 12 SP MM NOT_NAMED 1950-02-25 03:00:00 TS -16.6906 179.733 main 0 0 P________PP___ SH131950 -16.6997 179.750 -1 -16.6997 179.750 TC -16.6725 179.700 2 11 271
1950052S17194 1950 12 SP MM NOT_NAMED 1950-02-25 06:00:00 TS -16.6850 179.168 main 0 0 O________OP___ jtwc_sh SH131950 -16.7000 179.200 -1 -16.7000 179.200 TC -16.6550 179.105 2 11 271
1950052S17194 1950 12 SP MM NOT_NAMED 1950-02-25 09:00:00 TS -16.6767 178.577 main 0 0 P________PP___ SH131950 -16.6850 178.600 -1 -16.6850 178.600 TC -16.6601 178.532 2 11 269
1950052S17194 1950 12 SP MM NOT_NAMED 1950-02-25 12:00:00 TS -16.7000 178.000 main 53 53 O________OO___ jtwc_sh SH131950 -16.7000 178.000 -1 -16.7000 178.000 TC -16.7000 178.000 2 11 265
1950052S17194 1950 12 SP MM NOT_NAMED 1950-02-25 15:00:00 TS -16.7773 177.427 main 79 79 P________PP___ SH131950 -16.7775 177.405 -1 -16.7775 177.405 TC -16.7767 177.471 2 10 259
1950052S17194 1950 12 SP MM NOT_NAMED 1950-02-25 18:00:00 TS -16.8967 176.931 main 92 92 O________OP___ jtwc_sh SH131950 -16.9000 176.900 -1 -16.9000 176.900 TC -16.8900 176.993 2 9 253
1950052S17194 1950 12 SP MM NOT_NAMED 1950-02-25 21:00:00 TS -17.0343 176.548 main 116 110 P________PP___ SH131950 -17.0349 176.525 -1 -17.0349 176.525 TC -17.0332 176.593 2 7 243
1950052S17194 1950 12 SP MM NOT_NAMED 1950-02-26 00:00:00 TS -17.2000 176.300 main 125 125 O________OO___ jtwc_sh SH131950 -17.2000 176.300 -1 -17.2000 176.300 TC -17.2000 176.300 2 5 224
1950052S17194 1950 12 SP MM NOT_NAMED 1950-02-26 03:00:00 TS -17.3876 176.188 main 125 114 P________PP___ SH131950 -17.3924 176.212 -1 -17.3924 176.212 TC -17.3779 176.138 2 4 198
1950052S17194 1950 12 SP MM NOT_NAMED 1950-02-26 06:00:00 TS -17.5923 176.160 main 114 114 O________OP___ jtwc_sh SH131950 -17.6000 176.200 -1 -17.6000 176.200 TC -17.5769 176.080 2 4 187
1950052S17194 1950 12 SP MM NOT_NAMED 1950-02-26 09:00:00 TS -17.7958 176.127 main 118 116 P________PP___ SH131950 -17.8000 176.150 -1 -17.8000 176.150 TC -17.7875 176.082 2 4 187
1950052S17194 1950 12 SP MM NOT_NAMED 1950-02-26 12:00:00 TS -18.0000 176.100 main 116 116 O________OO___ jtwc_sh SH131950 -18.0000 176.100 -1 -18.0000 176.100 TC -18.0000 176.100 2 4 193
1950052S17194 1950 12 SP MM NOT_NAMED 1950-02-26 15:00:00 TS -18.1716 176.036 main 128 128 P________PP___ SH131950 -18.2000 176.043 -1 -18.2000 176.043 TC -18.1147 176.024 2 4 197
1950052S17194 1950 12 SP MM NOT_NAMED 1950-02-26 18:00:00 TS -18.3475 175.987 main 131 131 O________OP___ jtwc_sh SH131950 -18.4000 176.000 -1 -18.4000 176.000 TC -18.2424 175.962 2 3 191
1950052S17194 1950 12 SP MM NOT_NAMED 1950-02-26 21:00:00 TS -18.5096 175.961 main 138 138 P________PP___ SH131950 -18.5400 175.970 -1 -18.5400 175.970 TC -18.4490 175.943 2 5 178
1950052S17194 1950 12 SP MM NOT_NAMED 1950-02-27 00:00:00 TS -18.8000 176.000 main 155 155 O________OO___ jtwc_sh SH131950 -18.8000 176.000 -1 -18.8000 176.000 TC -18.8000 176.000 2 8 170
1950052S17194 1950 12 SP MM NOT_NAMED 1950-02-27 03:00:00 TS -19.3317 176.113 main 184 184 P________PP___ SH131950 -19.3025 176.098 -1 -19.3025 176.098 TC -19.3903 176.142 2 13 166
1950052S17194 1950 12 SP MM NOT_NAMED 1950-02-27 06:00:00 TS -20.0408 176.322 main 237 237 O________OP___ jtwc_sh SH131950 -20.0000 176.300 -1 -20.0000 176.300 TC -20.1224 176.365 2 16 163
1950052S17194 1950 12 SP MM NOT_NAMED 1950-02-27 09:00:00 TS -20.8828 176.631 main 319 316 P________PP___ SH131950 -20.8651 176.619 -1 -20.8651 176.619 TC -20.9184 176.655 2 18 159
1950052S17194 1950 12 SP MM NOT_NAMED 1950-02-27 12:00:00 TS -21.7000 177.000 main 391 391 O________OO___ jtwc_sh SH131950 -21.7000 177.000 -1 -21.7000 177.000 TC -21.7000 177.000 2 15 154
1950052S17194 1950 12 SP MM NOT_NAMED 1950-02-27 15:00:00 TS -22.2296 177.325 main 440 440 P________PP___ SH131950 -22.2147 177.329 -1 -22.2147 177.329 TC -22.2594 177.316 2 12 148
1950052S17194 1950 12 SP MM NOT_NAMED 1950-02-27 18:00:00 TS -22.7353 177.696 main 492 492 O________OP___ jtwc_sh SH131950 -22.7000 177.700 -1 -22.7000 177.700 TC -22.8059 177.688 2 14 147
1950052S17194 1950 12 SP MM NOT_NAMED 1950-02-27 21:00:00 TS -23.3712 178.137 main 570 570 P________PP___ SH131950 -23.3446 178.134 -1 -23.3446 178.134 TC -23.4244 178.141 2 17 148
1950052S17194 1950 12 SP MM NOT_NAMED 1950-02-28 00:00:00 TS -24.2000 178.700 main 661 661 O________OO___ jtwc_sh SH131950 -24.2000 178.700 -1 -24.2000 178.700 TC -24.2000 178.700 2 23 148
1950052S17194 1950 12 SP MM NOT_NAMED 1950-02-28 03:00:00 TS -25.3024 179.445 main 792 792 P________PP___ SH131950 -25.3327 179.447 -1 -25.3327 179.447 TC -25.2418 179.440 2 28 148
1950052S17194 1950 12 SP MM NOT_NAMED 1950-02-28 06:00:00 TS -26.5466 180.296 main 941 941 O________OP___ jtwc_sh SH131950 -26.6000 -179.700 -1 -26.6000 180.300 TC -26.4398 -179.711 2 29 148
1950052S17194 1950 12 SP MM NOT_NAMED 1950-02-28 09:00:00 TS -27.7725 181.172 main 1060 1009 P________PP___ SH131950 -27.8001 -178.827 -1 -27.8001 -178.827 TC -27.7173 -178.831 2 29 148
1950052S17194 1950 12 SP MM NOT_NAMED 1950-02-28 12:00:00 TS -29.0000 182.000 main 1007 923 O________OO___ jtwc_sh SH131950 -29.0000 -178.000 -1 -29.0000 182.000 TC -29.0000 -178.000 2 28 151
1950052S17194 1950 12 SP MM NOT_NAMED 1950-02-28 15:00:00 TS -30.2149 182.703 main 917 827 P________PP___ SH131950 -30.2068 -177.303 -1 -30.2068 -177.303 TC -30.2310 -177.285 2 27 155
1950052S17194 1950 12 SP MM NOT_NAMED 1950-02-28 18:00:00 TS -31.4046 183.310 main 822 747 O________OP___ jtwc_sh SH131950 -31.4000 -176.700 -1 -31.4000 183.300 TC -31.4139 -176.671 2 26 157
1950052S17194 1950 12 SP MM NOT_NAMED 1950-02-28 21:00:00 TS -32.5621 183.864 main 744 687 P________PP___ SH131950 -32.5605 -176.143 -1 -32.5605 -176.143 TC -32.5652 -176.122 2 25 158
1950052S17194 1950 12 SP MM NOT_NAMED 1950-03-01 00:00:00 TS -33.7000 184.400 main 686 O________OO___ jtwc_sh SH131950 -33.7000 -175.600 -1 -33.7000 184.400 TC -33.7000 -175.600 2 25 159

デジタル台風データ・検索

IBTrACS Databaseについて

本データベースは、米国NOAAが公開する1842年以降の世界の熱帯低気圧のベストトラックデータアーカイブInternational Best Track Archive for Climate Stewardship (IBTrACS)を、ウェブで閲覧しやすい形式に変換したものです。

最終更新日:2021-10-08